sensor_id;sensor_type;location;lat;lon;timestamp;P1;durP1;ratioP1;P2;durP2;ratioP2
5945;SDS011;2998;48.206;16.394;2024-01-30T00:01:52;11.80;;;9.20;;
5945;SDS011;2998;48.206;16.394;2024-01-30T00:04:20;16.10;;;8.43;;
5945;SDS011;2998;48.206;16.394;2024-01-30T00:06:48;10.20;;;8.57;;
5945;SDS011;2998;48.206;16.394;2024-01-30T00:09:18;14.03;;;8.63;;
5945;SDS011;2998;48.206;16.394;2024-01-30T00:11:47;12.90;;;9.30;;
5945;SDS011;2998;48.206;16.394;2024-01-30T00:14:15;15.90;;;9.90;;
5945;SDS011;2998;48.206;16.394;2024-01-30T00:16:46;14.90;;;9.40;;
5945;SDS011;2998;48.206;16.394;2024-01-30T00:19:14;13.93;;;10.30;;
5945;SDS011;2998;48.206;16.394;2024-01-30T00:21:42;11.37;;;9.57;;
5945;SDS011;2998;48.206;16.394;2024-01-30T00:24:11;9.83;;;8.73;;
5945;SDS011;2998;48.206;16.394;2024-01-30T00:26:40;12.70;;;9.90;;
5945;SDS011;2998;48.206;16.394;2024-01-30T00:29:09;15.57;;;10.47;;
5945;SDS011;2998;48.206;16.394;2024-01-30T00:31:37;12.07;;;10.13;;
5945;SDS011;2998;48.206;16.394;2024-01-30T00:34:07;12.80;;;9.37;;
5945;SDS011;2998;48.206;16.394;2024-01-30T00:36:36;32.67;;;19.77;;
5945;SDS011;2998;48.206;16.394;2024-01-30T00:39:04;20.00;;;13.20;;
5945;SDS011;2998;48.206;16.394;2024-01-30T00:41:35;23.20;;;11.53;;
5945;SDS011;2998;48.206;16.394;2024-01-30T00:44:05;12.30;;;9.93;;
5945;SDS011;2998;48.206;16.394;2024-01-30T00:46:34;13.60;;;10.43;;
5945;SDS011;2998;48.206;16.394;2024-01-30T00:49:02;12.30;;;8.90;;
5945;SDS011;2998;48.206;16.394;2024-01-30T00:51:30;12.53;;;8.90;;
5945;SDS011;2998;48.206;16.394;2024-01-30T00:53:59;10.27;;;8.47;;
5945;SDS011;2998;48.206;16.394;2024-01-30T00:56:27;13.67;;;8.60;;
5945;SDS011;2998;48.206;16.394;2024-01-30T00:58:55;9.37;;;8.47;;
5945;SDS011;2998;48.206;16.394;2024-01-30T01:01:25;9.27;;;8.37;;
5945;SDS011;2998;48.206;16.394;2024-01-30T01:03:54;11.90;;;9.07;;
5945;SDS011;2998;48.206;16.394;2024-01-30T01:06:22;16.30;;;9.57;;
5945;SDS011;2998;48.206;16.394;2024-01-30T01:08:51;12.27;;;9.57;;
5945;SDS011;2998;48.206;16.394;2024-01-30T01:11:19;14.37;;;8.77;;
5945;SDS011;2998;48.206;16.394;2024-01-30T01:13:47;11.63;;;9.13;;
5945;SDS011;2998;48.206;16.394;2024-01-30T01:16:15;11.67;;;8.70;;
5945;SDS011;2998;48.206;16.394;2024-01-30T01:18:45;12.20;;;8.47;;
5945;SDS011;2998;48.206;16.394;2024-01-30T01:21:13;13.47;;;8.77;;
5945;SDS011;2998;48.206;16.394;2024-01-30T01:23:42;10.27;;;8.10;;
5945;SDS011;2998;48.206;16.394;2024-01-30T01:26:10;11.53;;;7.97;;
5945;SDS011;2998;48.206;16.394;2024-01-30T01:28:39;10.20;;;7.37;;
5945;SDS011;2998;48.206;16.394;2024-01-30T01:31:08;12.30;;;7.57;;
5945;SDS011;2998;48.206;16.394;2024-01-30T01:33:36;9.43;;;7.37;;
5945;SDS011;2998;48.206;16.394;2024-01-30T01:36:06;12.27;;;8.83;;
5945;SDS011;2998;48.206;16.394;2024-01-30T01:38:34;13.10;;;8.27;;
5945;SDS011;2998;48.206;16.394;2024-01-30T01:41:03;11.33;;;9.37;;
5945;SDS011;2998;48.206;16.394;2024-01-30T01:43:31;10.47;;;8.60;;
5945;SDS011;2998;48.206;16.394;2024-01-30T01:45:59;8.97;;;7.87;;
5945;SDS011;2998;48.206;16.394;2024-01-30T01:48:28;11.53;;;8.63;;
5945;SDS011;2998;48.206;16.394;2024-01-30T01:50:57;14.10;;;7.63;;
5945;SDS011;2998;48.206;16.394;2024-01-30T01:53:27;10.87;;;9.07;;
5945;SDS011;2998;48.206;16.394;2024-01-30T01:55:55;11.73;;;8.33;;
5945;SDS011;2998;48.206;16.394;2024-01-30T01:58:23;9.77;;;8.37;;
5945;SDS011;2998;48.206;16.394;2024-01-30T02:00:55;14.73;;;8.40;;
5945;SDS011;2998;48.206;16.394;2024-01-30T02:03:24;12.33;;;7.70;;
5945;SDS011;2998;48.206;16.394;2024-01-30T02:05:53;9.60;;;8.30;;
5945;SDS011;2998;48.206;16.394;2024-01-30T02:08:21;13.00;;;9.10;;
5945;SDS011;2998;48.206;16.394;2024-01-30T02:10:51;14.23;;;9.00;;
5945;SDS011;2998;48.206;16.394;2024-01-30T02:13:20;9.80;;;8.03;;
5945;SDS011;2998;48.206;16.394;2024-01-30T02:15:49;10.13;;;8.03;;
5945;SDS011;2998;48.206;16.394;2024-01-30T02:18:19;15.73;;;8.73;;
5945;SDS011;2998;48.206;16.394;2024-01-30T02:20:47;10.07;;;8.10;;
5945;SDS011;2998;48.206;16.394;2024-01-30T02:23:17;11.07;;;8.20;;
5945;SDS011;2998;48.206;16.394;2024-01-30T02:25:47;8.33;;;7.50;;
5945;SDS011;2998;48.206;16.394;2024-01-30T02:28:15;11.30;;;7.70;;
5945;SDS011;2998;48.206;16.394;2024-01-30T02:30:44;9.50;;;7.43;;
5945;SDS011;2998;48.206;16.394;2024-01-30T02:33:12;10.17;;;7.47;;
5945;SDS011;2998;48.206;16.394;2024-01-30T02:35:41;8.03;;;7.17;;
5945;SDS011;2998;48.206;16.394;2024-01-30T02:38:09;15.90;;;9.17;;
5945;SDS011;2998;48.206;16.394;2024-01-30T02:40:39;16.73;;;7.30;;
5945;SDS011;2998;48.206;16.394;2024-01-30T02:43:07;8.17;;;6.63;;
5945;SDS011;2998;48.206;16.394;2024-01-30T02:45:35;7.73;;;6.87;;
5945;SDS011;2998;48.206;16.394;2024-01-30T02:48:04;8.57;;;7.00;;
5945;SDS011;2998;48.206;16.394;2024-01-30T02:50:33;12.83;;;7.40;;
5945;SDS011;2998;48.206;16.394;2024-01-30T02:53:01;7.30;;;6.60;;
5945;SDS011;2998;48.206;16.394;2024-01-30T02:55:29;10.33;;;7.90;;
5945;SDS011;2998;48.206;16.394;2024-01-30T02:57:59;12.80;;;7.80;;
5945;SDS011;2998;48.206;16.394;2024-01-30T03:00:27;13.70;;;7.87;;
5945;SDS011;2998;48.206;16.394;2024-01-30T03:02:55;10.40;;;8.37;;
5945;SDS011;2998;48.206;16.394;2024-01-30T03:05:24;9.50;;;8.50;;
5945;SDS011;2998;48.206;16.394;2024-01-30T03:07:52;9.53;;;7.93;;
5945;SDS011;2998;48.206;16.394;2024-01-30T03:10:21;9.93;;;7.03;;
5945;SDS011;2998;48.206;16.394;2024-01-30T03:12:49;8.00;;;6.20;;
5945;SDS011;2998;48.206;16.394;2024-01-30T03:15:19;9.13;;;6.43;;
5945;SDS011;2998;48.206;16.394;2024-01-30T03:17:47;6.57;;;5.97;;
5945;SDS011;2998;48.206;16.394;2024-01-30T03:20:15;6.80;;;5.72;;
5945;SDS011;2998;48.206;16.394;2024-01-30T03:22:43;7.67;;;6.30;;
5945;SDS011;2998;48.206;16.394;2024-01-30T03:25:12;6.63;;;5.40;;
5945;SDS011;2998;48.206;16.394;2024-01-30T03:27:40;7.50;;;6.67;;
5945;SDS011;2998;48.206;16.394;2024-01-30T03:30:09;7.40;;;6.50;;
5945;SDS011;2998;48.206;16.394;2024-01-30T03:32:38;12.17;;;6.73;;
5945;SDS011;2998;48.206;16.394;2024-01-30T03:35:07;10.67;;;6.50;;
5945;SDS011;2998;48.206;16.394;2024-01-30T03:37:36;8.70;;;6.13;;
5945;SDS011;2998;48.206;16.394;2024-01-30T03:40:04;12.97;;;7.23;;
5945;SDS011;2998;48.206;16.394;2024-01-30T03:42:33;16.53;;;7.17;;
5945;SDS011;2998;48.206;16.394;2024-01-30T03:45:01;7.40;;;6.10;;
5945;SDS011;2998;48.206;16.394;2024-01-30T03:47:30;10.40;;;6.43;;
5945;SDS011;2998;48.206;16.394;2024-01-30T03:49:59;11.40;;;6.93;;
5945;SDS011;2998;48.206;16.394;2024-01-30T03:52:28;8.70;;;6.43;;
5945;SDS011;2998;48.206;16.394;2024-01-30T03:54:56;11.40;;;8.50;;
5945;SDS011;2998;48.206;16.394;2024-01-30T03:57:24;9.52;;;7.72;;
5945;SDS011;2998;48.206;16.394;2024-01-30T03:59:52;10.85;;;7.15;;
5945;SDS011;2998;48.206;16.394;2024-01-30T04:02:21;9.00;;;6.50;;
5945;SDS011;2998;48.206;16.394;2024-01-30T04:04:49;8.73;;;6.70;;
5945;SDS011;2998;48.206;16.394;2024-01-30T04:07:19;6.90;;;6.27;;
5945;SDS011;2998;48.206;16.394;2024-01-30T04:09:50;9.38;;;6.00;;
5945;SDS011;2998;48.206;16.394;2024-01-30T04:12:18;9.30;;;6.03;;
5945;SDS011;2998;48.206;16.394;2024-01-30T04:14:46;9.10;;;7.47;;
5945;SDS011;2998;48.206;16.394;2024-01-30T04:17:14;7.20;;;6.50;;
5945;SDS011;2998;48.206;16.394;2024-01-30T04:19:43;8.77;;;6.40;;
5945;SDS011;2998;48.206;16.394;2024-01-30T04:22:11;8.50;;;7.00;;
5945;SDS011;2998;48.206;16.394;2024-01-30T04:24:40;8.97;;;7.77;;
5945;SDS011;2998;48.206;16.394;2024-01-30T04:27:09;10.30;;;7.50;;
5945;SDS011;2998;48.206;16.394;2024-01-30T04:29:37;10.48;;;6.78;;
5945;SDS011;2998;48.206;16.394;2024-01-30T04:32:05;10.50;;;7.90;;
5945;SDS011;2998;48.206;16.394;2024-01-30T04:34:34;9.50;;;7.18;;
5945;SDS011;2998;48.206;16.394;2024-01-30T04:37:02;12.87;;;9.07;;
5945;SDS011;2998;48.206;16.394;2024-01-30T04:39:32;9.43;;;7.53;;
5945;SDS011;2998;48.206;16.394;2024-01-30T04:42:02;10.70;;;6.57;;
5945;SDS011;2998;48.206;16.394;2024-01-30T04:44:35;7.95;;;7.15;;
5945;SDS011;2998;48.206;16.394;2024-01-30T04:47:03;7.33;;;6.60;;
5945;SDS011;2998;48.206;16.394;2024-01-30T04:49:32;10.43;;;5.83;;
5945;SDS011;2998;48.206;16.394;2024-01-30T04:52:00;7.78;;;7.00;;
5945;SDS011;2998;48.206;16.394;2024-01-30T04:54:29;10.70;;;6.90;;
5945;SDS011;2998;48.206;16.394;2024-01-30T04:56:57;7.63;;;6.87;;
5945;SDS011;2998;48.206;16.394;2024-01-30T04:59:27;15.02;;;7.13;;
5945;SDS011;2998;48.206;16.394;2024-01-30T05:01:55;8.90;;;7.17;;
5945;SDS011;2998;48.206;16.394;2024-01-30T05:04:24;13.13;;;8.90;;
5945;SDS011;2998;48.206;16.394;2024-01-30T05:06:52;12.60;;;8.03;;
5945;SDS011;2998;48.206;16.394;2024-01-30T05:09:20;10.77;;;8.00;;
5945;SDS011;2998;48.206;16.394;2024-01-30T05:11:50;13.98;;;7.53;;
5945;SDS011;2998;48.206;16.394;2024-01-30T05:14:18;10.70;;;7.97;;
5945;SDS011;2998;48.206;16.394;2024-01-30T05:16:48;9.00;;;8.07;;
5945;SDS011;2998;48.206;16.394;2024-01-30T05:19:16;10.75;;;7.60;;
5945;SDS011;2998;48.206;16.394;2024-01-30T05:21:45;11.85;;;7.20;;
5945;SDS011;2998;48.206;16.394;2024-01-30T05:24:13;14.70;;;8.52;;
5945;SDS011;2998;48.206;16.394;2024-01-30T05:26:44;20.73;;;9.65;;
5945;SDS011;2998;48.206;16.394;2024-01-30T05:29:13;11.15;;;7.47;;
5945;SDS011;2998;48.206;16.394;2024-01-30T05:31:42;9.70;;;7.68;;
5945;SDS011;2998;48.206;16.394;2024-01-30T05:34:11;9.40;;;7.25;;
5945;SDS011;2998;48.206;16.394;2024-01-30T05:36:40;9.27;;;7.53;;
5945;SDS011;2998;48.206;16.394;2024-01-30T05:39:08;11.18;;;7.65;;
5945;SDS011;2998;48.206;16.394;2024-01-30T05:41:36;16.57;;;8.10;;
5945;SDS011;2998;48.206;16.394;2024-01-30T05:44:05;8.95;;;7.80;;
5945;SDS011;2998;48.206;16.394;2024-01-30T05:46:33;12.32;;;8.85;;
5945;SDS011;2998;48.206;16.394;2024-01-30T05:49:03;11.93;;;9.65;;
5945;SDS011;2998;48.206;16.394;2024-01-30T05:51:32;11.02;;;8.73;;
5945;SDS011;2998;48.206;16.394;2024-01-30T05:54:00;11.38;;;8.20;;
5945;SDS011;2998;48.206;16.394;2024-01-30T05:56:30;9.57;;;7.20;;
5945;SDS011;2998;48.206;16.394;2024-01-30T05:58:58;11.73;;;8.07;;
5945;SDS011;2998;48.206;16.394;2024-01-30T06:01:26;17.42;;;7.53;;
5945;SDS011;2998;48.206;16.394;2024-01-30T06:03:56;17.20;;;8.23;;
5945;SDS011;2998;48.206;16.394;2024-01-30T06:06:24;18.38;;;8.02;;
5945;SDS011;2998;48.206;16.394;2024-01-30T06:08:54;22.98;;;8.20;;
5945;SDS011;2998;48.206;16.394;2024-01-30T06:11:23;15.32;;;9.60;;
5945;SDS011;2998;48.206;16.394;2024-01-30T06:13:52;14.88;;;8.73;;
5945;SDS011;2998;48.206;16.394;2024-01-30T06:16:20;17.88;;;8.60;;
5945;SDS011;2998;48.206;16.394;2024-01-30T06:18:49;12.18;;;8.63;;
5945;SDS011;2998;48.206;16.394;2024-01-30T06:21:20;21.45;;;8.40;;
5945;SDS011;2998;48.206;16.394;2024-01-30T06:23:49;12.38;;;8.18;;
5945;SDS011;2998;48.206;16.394;2024-01-30T06:26:19;12.30;;;9.43;;
5945;SDS011;2998;48.206;16.394;2024-01-30T06:28:48;13.57;;;8.40;;
5945;SDS011;2998;48.206;16.394;2024-01-30T06:31:16;16.52;;;8.80;;
5945;SDS011;2998;48.206;16.394;2024-01-30T06:33:46;18.25;;;10.30;;
5945;SDS011;2998;48.206;16.394;2024-01-30T06:36:14;13.98;;;8.25;;
5945;SDS011;2998;48.206;16.394;2024-01-30T06:38:43;11.57;;;8.80;;
5945;SDS011;2998;48.206;16.394;2024-01-30T06:41:12;16.02;;;9.70;;
5945;SDS011;2998;48.206;16.394;2024-01-30T06:43:42;13.27;;;8.80;;
5945;SDS011;2998;48.206;16.394;2024-01-30T06:46:11;18.20;;;9.82;;
5945;SDS011;2998;48.206;16.394;2024-01-30T06:48:41;20.80;;;11.65;;
5945;SDS011;2998;48.206;16.394;2024-01-30T06:51:11;13.55;;;10.40;;
5945;SDS011;2998;48.206;16.394;2024-01-30T06:53:43;12.95;;;9.20;;
5945;SDS011;2998;48.206;16.394;2024-01-30T06:56:12;23.60;;;10.85;;
5945;SDS011;2998;48.206;16.394;2024-01-30T06:58:41;19.08;;;9.25;;
5945;SDS011;2998;48.206;16.394;2024-01-30T07:01:10;12.27;;;9.18;;
5945;SDS011;2998;48.206;16.394;2024-01-30T07:03:38;15.20;;;9.65;;
5945;SDS011;2998;48.206;16.394;2024-01-30T07:06:07;13.40;;;9.23;;
5945;SDS011;2998;48.206;16.394;2024-01-30T07:08:37;12.17;;;9.57;;
5945;SDS011;2998;48.206;16.394;2024-01-30T07:11:06;12.63;;;9.70;;
5945;SDS011;2998;48.206;16.394;2024-01-30T07:13:34;13.27;;;10.30;;
5945;SDS011;2998;48.206;16.394;2024-01-30T07:16:04;14.75;;;10.35;;
5945;SDS011;2998;48.206;16.394;2024-01-30T07:18:33;17.58;;;10.52;;
5945;SDS011;2998;48.206;16.394;2024-01-30T07:21:01;18.30;;;10.00;;
5945;SDS011;2998;48.206;16.394;2024-01-30T07:23:30;9.87;;;8.63;;
5945;SDS011;2998;48.206;16.394;2024-01-30T07:26:00;12.10;;;8.70;;
5945;SDS011;2998;48.206;16.394;2024-01-30T07:28:29;18.40;;;10.85;;
5945;SDS011;2998;48.206;16.394;2024-01-30T07:30:58;13.88;;;10.20;;
5945;SDS011;2998;48.206;16.394;2024-01-30T07:33:28;13.70;;;11.03;;
5945;SDS011;2998;48.206;16.394;2024-01-30T07:35:57;19.15;;;9.38;;
5945;SDS011;2998;48.206;16.394;2024-01-30T07:38:25;15.63;;;8.40;;
5945;SDS011;2998;48.206;16.394;2024-01-30T07:40:54;11.97;;;8.93;;
5945;SDS011;2998;48.206;16.394;2024-01-30T07:43:22;28.30;;;13.70;;
5945;SDS011;2998;48.206;16.394;2024-01-30T07:45:51;17.83;;;11.37;;
5945;SDS011;2998;48.206;16.394;2024-01-30T07:48:19;14.63;;;10.60;;
5945;SDS011;2998;48.206;16.394;2024-01-30T07:50:49;25.80;;;10.83;;
5945;SDS011;2998;48.206;16.394;2024-01-30T07:53:17;20.50;;;10.90;;
5945;SDS011;2998;48.206;16.394;2024-01-30T07:55:49;16.70;;;10.00;;
5945;SDS011;2998;48.206;16.394;2024-01-30T07:58:18;12.73;;;8.60;;
5945;SDS011;2998;48.206;16.394;2024-01-30T08:00:47;13.27;;;9.63;;
5945;SDS011;2998;48.206;16.394;2024-01-30T08:03:15;8.20;;;7.40;;
5945;SDS011;2998;48.206;16.394;2024-01-30T08:05:44;14.37;;;7.70;;
5945;SDS011;2998;48.206;16.394;2024-01-30T08:08:14;9.73;;;8.73;;
5945;SDS011;2998;48.206;16.394;2024-01-30T08:10:43;11.47;;;8.70;;
5945;SDS011;2998;48.206;16.394;2024-01-30T08:13:11;10.00;;;7.53;;
5945;SDS011;2998;48.206;16.394;2024-01-30T08:15:39;11.30;;;8.03;;
5945;SDS011;2998;48.206;16.394;2024-01-30T08:18:08;15.80;;;10.00;;
5945;SDS011;2998;48.206;16.394;2024-01-30T08:20:36;11.63;;;8.50;;
5945;SDS011;2998;48.206;16.394;2024-01-30T08:23:05;16.53;;;11.07;;
5945;SDS011;2998;48.206;16.394;2024-01-30T08:25:34;14.90;;;10.37;;
5945;SDS011;2998;48.206;16.394;2024-01-30T08:28:03;19.50;;;12.73;;
5945;SDS011;2998;48.206;16.394;2024-01-30T08:30:32;20.10;;;13.33;;
5945;SDS011;2998;48.206;16.394;2024-01-30T08:33:01;17.77;;;12.73;;
5945;SDS011;2998;48.206;16.394;2024-01-30T08:35:30;21.40;;;13.23;;
5945;SDS011;2998;48.206;16.394;2024-01-30T08:38:00;21.40;;;13.27;;
5945;SDS011;2998;48.206;16.394;2024-01-30T08:40:30;18.60;;;12.33;;
5945;SDS011;2998;48.206;16.394;2024-01-30T08:43:00;28.30;;;17.27;;
5945;SDS011;2998;48.206;16.394;2024-01-30T08:45:31;23.10;;;13.83;;
5945;SDS011;2998;48.206;16.394;2024-01-30T08:47:59;17.33;;;12.80;;
5945;SDS011;2998;48.206;16.394;2024-01-30T08:50:29;17.77;;;12.30;;
5945;SDS011;2998;48.206;16.394;2024-01-30T08:52:57;18.43;;;12.90;;
5945;SDS011;2998;48.206;16.394;2024-01-30T08:55:26;21.47;;;14.00;;
5945;SDS011;2998;48.206;16.394;2024-01-30T08:57:55;19.53;;;12.73;;
5945;SDS011;2998;48.206;16.394;2024-01-30T09:00:26;20.87;;;14.60;;
5945;SDS011;2998;48.206;16.394;2024-01-30T09:02:54;20.30;;;14.10;;
5945;SDS011;2998;48.206;16.394;2024-01-30T09:05:23;23.00;;;16.30;;
5945;SDS011;2998;48.206;16.394;2024-01-30T09:07:51;30.87;;;20.73;;
5945;SDS011;2998;48.206;16.394;2024-01-30T09:10:20;25.50;;;15.50;;
5945;SDS011;2998;48.206;16.394;2024-01-30T09:12:48;20.57;;;15.80;;
5945;SDS011;2998;48.206;16.394;2024-01-30T09:15:17;24.57;;;17.23;;
5945;SDS011;2998;48.206;16.394;2024-01-30T09:17:49;23.50;;;16.27;;
5945;SDS011;2998;48.206;16.394;2024-01-30T09:20:17;24.23;;;17.13;;
5945;SDS011;2998;48.206;16.394;2024-01-30T09:22:47;28.80;;;16.40;;
5945;SDS011;2998;48.206;16.394;2024-01-30T09:25:16;27.20;;;17.80;;
5945;SDS011;2998;48.206;16.394;2024-01-30T09:27:46;25.23;;;16.00;;
5945;SDS011;2998;48.206;16.394;2024-01-30T09:30:17;22.80;;;16.63;;
5945;SDS011;2998;48.206;16.394;2024-01-30T09:32:45;24.00;;;16.17;;
5945;SDS011;2998;48.206;16.394;2024-01-30T09:35:15;28.33;;;17.90;;
5945;SDS011;2998;48.206;16.394;2024-01-30T09:37:44;24.30;;;16.27;;
5945;SDS011;2998;48.206;16.394;2024-01-30T09:40:13;27.80;;;17.37;;
5945;SDS011;2998;48.206;16.394;2024-01-30T09:42:46;28.10;;;17.63;;
5945;SDS011;2998;48.206;16.394;2024-01-30T09:45:15;29.90;;;18.23;;
5945;SDS011;2998;48.206;16.394;2024-01-30T09:47:46;25.33;;;17.20;;
5945;SDS011;2998;48.206;16.394;2024-01-30T09:50:16;22.53;;;16.07;;
5945;SDS011;2998;48.206;16.394;2024-01-30T09:52:45;28.60;;;17.87;;
5945;SDS011;2998;48.206;16.394;2024-01-30T09:55:15;27.53;;;17.10;;
5945;SDS011;2998;48.206;16.394;2024-01-30T09:57:44;27.00;;;17.60;;
5945;SDS011;2998;48.206;16.394;2024-01-30T10:00:13;27.83;;;18.53;;
5945;SDS011;2998;48.206;16.394;2024-01-30T10:02:42;33.00;;;18.00;;
5945;SDS011;2998;48.206;16.394;2024-01-30T10:05:13;23.60;;;17.13;;
5945;SDS011;2998;48.206;16.394;2024-01-30T10:07:55;26.70;;;17.20;;
5945;SDS011;2998;48.206;16.394;2024-01-30T10:10:25;27.63;;;17.47;;
5945;SDS011;2998;48.206;16.394;2024-01-30T10:12:54;26.50;;;17.17;;
5945;SDS011;2998;48.206;16.394;2024-01-30T10:15:23;24.20;;;16.17;;
5945;SDS011;2998;48.206;16.394;2024-01-30T10:17:52;22.90;;;15.70;;
5945;SDS011;2998;48.206;16.394;2024-01-30T10:20:22;20.37;;;15.20;;
5945;SDS011;2998;48.206;16.394;2024-01-30T10:22:53;22.57;;;16.00;;
5945;SDS011;2998;48.206;16.394;2024-01-30T10:25:21;25.57;;;16.07;;
5945;SDS011;2998;48.206;16.394;2024-01-30T10:27:52;23.90;;;15.70;;
5945;SDS011;2998;48.206;16.394;2024-01-30T10:30:22;21.83;;;15.37;;
5945;SDS011;2998;48.206;16.394;2024-01-30T10:32:50;22.10;;;15.23;;
5945;SDS011;2998;48.206;16.394;2024-01-30T10:35:19;19.60;;;15.13;;
5945;SDS011;2998;48.206;16.394;2024-01-30T10:37:49;25.80;;;16.27;;
5945;SDS011;2998;48.206;16.394;2024-01-30T10:40:18;23.80;;;17.50;;
5945;SDS011;2998;48.206;16.394;2024-01-30T10:42:50;24.40;;;15.53;;
5945;SDS011;2998;48.206;16.394;2024-01-30T10:45:23;50.20;;;19.73;;
5945;SDS011;2998;48.206;16.394;2024-01-30T10:47:54;22.07;;;15.37;;
5945;SDS011;2998;48.206;16.394;2024-01-30T10:50:24;27.20;;;16.90;;
5945;SDS011;2998;48.206;16.394;2024-01-30T10:52:55;22.63;;;16.60;;
5945;SDS011;2998;48.206;16.394;2024-01-30T10:55:25;23.20;;;15.87;;
5945;SDS011;2998;48.206;16.394;2024-01-30T10:57:55;22.53;;;16.20;;
5945;SDS011;2998;48.206;16.394;2024-01-30T11:00:25;28.07;;;18.00;;
5945;SDS011;2998;48.206;16.394;2024-01-30T11:02:55;31.17;;;19.40;;
5945;SDS011;2998;48.206;16.394;2024-01-30T11:05:24;35.03;;;22.83;;
5945;SDS011;2998;48.206;16.394;2024-01-30T11:08:00;30.57;;;20.43;;
5945;SDS011;2998;48.206;16.394;2024-01-30T11:10:46;30.13;;;20.10;;
5945;SDS011;2998;48.206;16.394;2024-01-30T11:13:15;33.33;;;21.43;;
5945;SDS011;2998;48.206;16.394;2024-01-30T11:15:44;29.53;;;20.90;;
5945;SDS011;2998;48.206;16.394;2024-01-30T11:18:22;32.80;;;19.77;;
5945;SDS011;2998;48.206;16.394;2024-01-30T11:20:51;28.07;;;18.07;;
5945;SDS011;2998;48.206;16.394;2024-01-30T11:23:23;31.07;;;19.67;;
5945;SDS011;2998;48.206;16.394;2024-01-30T11:25:52;28.53;;;18.37;;
5945;SDS011;2998;48.206;16.394;2024-01-30T11:28:21;26.37;;;18.40;;
5945;SDS011;2998;48.206;16.394;2024-01-30T11:30:50;28.40;;;18.27;;
5945;SDS011;2998;48.206;16.394;2024-01-30T11:33:27;24.63;;;16.83;;
5945;SDS011;2998;48.206;16.394;2024-01-30T11:36:00;25.03;;;16.43;;
5945;SDS011;2998;48.206;16.394;2024-01-30T11:38:30;27.50;;;17.40;;
5945;SDS011;2998;48.206;16.394;2024-01-30T11:40:59;27.07;;;17.73;;
5945;SDS011;2998;48.206;16.394;2024-01-30T11:43:29;28.17;;;17.80;;
5945;SDS011;2998;48.206;16.394;2024-01-30T11:45:57;25.00;;;18.17;;
5945;SDS011;2998;48.206;16.394;2024-01-30T11:48:28;26.37;;;16.63;;
5945;SDS011;2998;48.206;16.394;2024-01-30T11:50:58;27.63;;;17.10;;
5945;SDS011;2998;48.206;16.394;2024-01-30T11:53:27;21.73;;;17.40;;
5945;SDS011;2998;48.206;16.394;2024-01-30T11:55:57;23.73;;;17.27;;
5945;SDS011;2998;48.206;16.394;2024-01-30T11:58:25;27.67;;;16.43;;
5945;SDS011;2998;48.206;16.394;2024-01-30T12:00:54;27.60;;;18.07;;
5945;SDS011;2998;48.206;16.394;2024-01-30T12:03:23;22.00;;;16.50;;
5945;SDS011;2998;48.206;16.394;2024-01-30T12:05:55;24.17;;;16.43;;
5945;SDS011;2998;48.206;16.394;2024-01-30T12:08:26;28.37;;;18.50;;
5945;SDS011;2998;48.206;16.394;2024-01-30T12:10:57;31.23;;;18.33;;
5945;SDS011;2998;48.206;16.394;2024-01-30T12:13:28;30.40;;;18.93;;
5945;SDS011;2998;48.206;16.394;2024-01-30T12:15:59;28.23;;;18.43;;
5945;SDS011;2998;48.206;16.394;2024-01-30T12:18:28;36.13;;;18.83;;
5945;SDS011;2998;48.206;16.394;2024-01-30T12:20:57;53.57;;;29.37;;
5945;SDS011;2998;48.206;16.394;2024-01-30T12:23:26;24.50;;;16.57;;
5945;SDS011;2998;48.206;16.394;2024-01-30T12:25:57;24.93;;;17.60;;
5945;SDS011;2998;48.206;16.394;2024-01-30T12:28:26;26.97;;;18.67;;
5945;SDS011;2998;48.206;16.394;2024-01-30T12:31:01;27.93;;;18.17;;
5945;SDS011;2998;48.206;16.394;2024-01-30T12:33:30;33.17;;;19.07;;
5945;SDS011;2998;48.206;16.394;2024-01-30T12:36:00;25.47;;;17.60;;
5945;SDS011;2998;48.206;16.394;2024-01-30T12:38:30;24.67;;;16.80;;
5945;SDS011;2998;48.206;16.394;2024-01-30T12:41:00;30.73;;;18.37;;
5945;SDS011;2998;48.206;16.394;2024-01-30T12:43:29;24.90;;;17.93;;
5945;SDS011;2998;48.206;16.394;2024-01-30T12:46:04;28.47;;;19.90;;
5945;SDS011;2998;48.206;16.394;2024-01-30T12:48:33;29.10;;;17.40;;
5945;SDS011;2998;48.206;16.394;2024-01-30T12:51:02;25.60;;;17.67;;
5945;SDS011;2998;48.206;16.394;2024-01-30T12:53:31;25.57;;;18.70;;
5945;SDS011;2998;48.206;16.394;2024-01-30T12:56:00;29.80;;;17.60;;
5945;SDS011;2998;48.206;16.394;2024-01-30T12:58:29;24.73;;;17.67;;
5945;SDS011;2998;48.206;16.394;2024-01-30T13:00:57;28.70;;;17.57;;
5945;SDS011;2998;48.206;16.394;2024-01-30T13:03:27;25.60;;;17.63;;
5945;SDS011;2998;48.206;16.394;2024-01-30T13:06:00;26.30;;;17.77;;
5945;SDS011;2998;48.206;16.394;2024-01-30T13:08:29;30.43;;;18.17;;
5945;SDS011;2998;48.206;16.394;2024-01-30T13:10:58;26.77;;;18.83;;
5945;SDS011;2998;48.206;16.394;2024-01-30T13:13:27;27.20;;;18.17;;
5945;SDS011;2998;48.206;16.394;2024-01-30T13:15:56;25.00;;;16.60;;
5945;SDS011;2998;48.206;16.394;2024-01-30T13:18:25;28.37;;;18.80;;
5945;SDS011;2998;48.206;16.394;2024-01-30T13:20:53;30.67;;;19.30;;
5945;SDS011;2998;48.206;16.394;2024-01-30T13:23:21;25.57;;;18.03;;
5945;SDS011;2998;48.206;16.394;2024-01-30T13:25:50;28.07;;;18.57;;
5945;SDS011;2998;48.206;16.394;2024-01-30T13:28:20;27.50;;;18.60;;
5945;SDS011;2998;48.206;16.394;2024-01-30T13:30:50;27.63;;;19.97;;
5945;SDS011;2998;48.206;16.394;2024-01-30T13:33:19;28.93;;;17.37;;
5945;SDS011;2998;48.206;16.394;2024-01-30T13:35:47;26.70;;;18.57;;
5945;SDS011;2998;48.206;16.394;2024-01-30T13:38:16;28.43;;;17.97;;
5945;SDS011;2998;48.206;16.394;2024-01-30T13:40:44;27.00;;;18.63;;
5945;SDS011;2998;48.206;16.394;2024-01-30T13:43:13;28.97;;;19.77;;
5945;SDS011;2998;48.206;16.394;2024-01-30T13:45:43;27.07;;;17.90;;
5945;SDS011;2998;48.206;16.394;2024-01-30T13:48:14;28.70;;;18.10;;
5945;SDS011;2998;48.206;16.394;2024-01-30T13:50:43;25.77;;;18.00;;
5945;SDS011;2998;48.206;16.394;2024-01-30T13:53:11;33.00;;;21.80;;
5945;SDS011;2998;48.206;16.394;2024-01-30T13:55:40;28.47;;;18.53;;
5945;SDS011;2998;48.206;16.394;2024-01-30T13:58:09;33.20;;;20.47;;
5945;SDS011;2998;48.206;16.394;2024-01-30T14:00:37;27.80;;;18.60;;
5945;SDS011;2998;48.206;16.394;2024-01-30T14:03:06;32.30;;;19.07;;
5945;SDS011;2998;48.206;16.394;2024-01-30T14:05:35;26.67;;;19.93;;
5945;SDS011;2998;48.206;16.394;2024-01-30T14:08:04;26.97;;;20.10;;
5945;SDS011;2998;48.206;16.394;2024-01-30T14:10:34;30.50;;;18.00;;
5945;SDS011;2998;48.206;16.394;2024-01-30T14:13:02;28.90;;;19.50;;
5945;SDS011;2998;48.206;16.394;2024-01-30T14:15:31;27.83;;;18.70;;
5945;SDS011;2998;48.206;16.394;2024-01-30T14:17:59;29.67;;;19.37;;
5945;SDS011;2998;48.206;16.394;2024-01-30T14:20:28;30.10;;;19.03;;
5945;SDS011;2998;48.206;16.394;2024-01-30T14:22:58;35.23;;;19.87;;
5945;SDS011;2998;48.206;16.394;2024-01-30T14:25:27;37.00;;;22.00;;
5945;SDS011;2998;48.206;16.394;2024-01-30T14:27:55;36.83;;;21.47;;
5945;SDS011;2998;48.206;16.394;2024-01-30T14:30:24;39.50;;;22.13;;
5945;SDS011;2998;48.206;16.394;2024-01-30T14:32:52;36.73;;;23.73;;
5945;SDS011;2998;48.206;16.394;2024-01-30T14:35:21;43.90;;;21.50;;
5945;SDS011;2998;48.206;16.394;2024-01-30T14:37:50;37.40;;;20.83;;
5945;SDS011;2998;48.206;16.394;2024-01-30T14:40:21;33.70;;;20.50;;
5945;SDS011;2998;48.206;16.394;2024-01-30T14:42:49;35.83;;;21.30;;
5945;SDS011;2998;48.206;16.394;2024-01-30T14:45:18;29.57;;;20.53;;
5945;SDS011;2998;48.206;16.394;2024-01-30T14:47:48;32.40;;;20.70;;
5945;SDS011;2998;48.206;16.394;2024-01-30T14:50:17;39.30;;;20.10;;
5945;SDS011;2998;48.206;16.394;2024-01-30T14:52:46;31.77;;;20.30;;
5945;SDS011;2998;48.206;16.394;2024-01-30T14:55:14;35.87;;;21.70;;